Time;durP1;ratioP1;P1;durP2;ratioP2;P2;SDS_P1;SDS_P2;PMS_P1;PMS_P2;Temp;Humidity;BMP_temperature;BMP_pressure;BME280_temperature;BME280_humidity;BME280_pressure;Samples;Min_cycle;Max_cycle;Signal;HPM_P1;HPM_P2
2021/10/31 00:02:16;;;;;;;7.70;1.38;;;;;;;;;;5051966;28;20040;-77
2021/10/31 00:04:42;;;;;;;3.40;2.20;;;;;;;;;;5031979;28;20033;-77
2021/10/31 00:07:08;;;;;;;5.88;2.08;;;;;;;;;;5060345;28;20368;-77
2021/10/31 00:09:34;;;;;;;1.88;1.70;;;;;;;;;;5054215;28;20017;-78
2021/10/31 00:12:00;;;;;;;4.85;2.42;;;;;;;;;;5058839;28;20016;-78
2021/10/31 00:14:27;;;;;;;7.75;2.78;;;;;;;;;;5060330;28;20029;-78
2021/10/31 00:16:58;;;;;;;5.90;2.33;;;;;;;;;;5063339;28;20043;-77
2021/10/31 00:19:27;;;;;;;2.75;1.50;;;;;;;;;;5064342;28;20483;-78
2021/10/31 00:21:53;;;;;;;0.65;0.65;;;;;;;;;;5068453;28;20091;-77
2021/10/31 00:24:19;;;;;;;1.60;1.35;;;;;;;;;;5068574;28;20551;-78
2021/10/31 00:26:45;;;;;;;7.15;2.70;;;;;;;;;;5068575;28;20569;-78
2021/10/31 00:29:11;;;;;;;1.30;1.13;;;;;;;;;;5057781;28;20017;-78
2021/10/31 00:31:37;;;;;;;1.70;1.60;;;;;;;;;;5064193;28;20089;-77
2021/10/31 00:34:03;;;;;;;1.42;1.33;;;;;;;;;;5060734;28;20033;-77
2021/10/31 00:36:29;;;;;;;1.50;1.27;;;;;;;;;;5064322;28;20025;-77
2021/10/31 00:38:55;;;;;;;5.80;1.23;;;;;;;;;;5066724;28;20032;-77
2021/10/31 00:41:21;;;;;;;1.25;1.05;;;;;;;;;;5059996;28;20036;-78
2021/10/31 00:43:47;;;;;;;2.95;1.60;;;;;;;;;;5067275;28;20032;-77
2021/10/31 00:46:13;;;;;;;2.78;1.95;;;;;;;;;;5057449;28;20052;-77
2021/10/31 00:48:39;;;;;;;1.55;1.45;;;;;;;;;;5061690;28;20041;-77
2021/10/31 00:51:08;;;;;;;1.25;1.10;;;;;;;;;;5060350;28;20036;-78
2021/10/31 00:53:35;;;;;;;2.38;2.13;;;;;;;;;;5061215;28;20021;-78
2021/10/31 00:56:01;;;;;;;6.95;1.42;;;;;;;;;;5042708;28;20040;-78
2021/10/31 00:58:27;;;;;;;2.22;2.03;;;;;;;;;;5058725;28;20391;-77
2021/10/31 01:00:53;;;;;;;1.67;1.58;;;;;;;;;;5062300;28;20037;-77
2021/10/31 01:03:19;;;;;;;1.55;0.95;;;;;;;;;;5064945;28;20039;-77
2021/10/31 01:05:47;;;;;;;1.20;1.10;;;;;;;;;;5062161;28;20422;-77
2021/10/31 01:08:34;;;;;;;3.65;1.63;;;;;;;;;;5047818;28;20412;-77
2021/10/31 01:11:18;;;;;;;2.33;1.52;;;;;;;;;;5062219;28;20028;-77
2021/10/31 01:13:54;;;;;;;0.68;0.50;;;;;;;;;;5061457;28;20067;-77
2021/10/31 01:16:46;;;;;;;1.52;1.42;;;;;;;;;;5055195;28;20558;-77
2021/10/31 01:19:12;;;;;;;2.00;1.35;;;;;;;;;;5065259;28;20058;-77
2021/10/31 01:21:51;;;;;;;1.45;1.35;;;;;;;;;;5061133;28;20033;-78
2021/10/31 01:24:26;;;;;;;2.35;1.90;;;;;;;;;;5061741;28;20032;-77
2021/10/31 01:26:52;;;;;;;2.25;1.48;;;;;;;;;;5057874;28;20095;-77
2021/10/31 01:29:37;;;;;;;1.90;1.52;;;;;;;;;;5064535;28;20391;-77
2021/10/31 01:32:25;;;;;;;1.63;1.52;;;;;;;;;;5061090;28;20352;-77
2021/10/31 01:34:58;;;;;;;0.98;0.98;;;;;;;;;;5065257;28;20048;-77
2021/10/31 01:37:36;;;;;;;2.95;1.85;;;;;;;;;;5067723;28;20036;-77
2021/10/31 01:40:12;;;;;;;0.93;0.90;;;;;;;;;;5055316;28;20032;-77
2021/10/31 01:42:46;;;;;;;1.35;1.17;;;;;;;;;;5053823;28;20029;-77
2021/10/31 01:45:21;;;;;;;2.60;2.40;;;;;;;;;;5055928;28;20139;-77
2021/10/31 01:48:03;;;;;;;1.65;1.50;;;;;;;;;;5065055;28;20082;-77
2021/10/31 01:50:39;;;;;;;3.35;2.28;;;;;;;;;;5065768;28;20013;-77
2021/10/31 01:53:27;;;;;;;1.95;1.58;;;;;;;;;;5065628;28;20074;-78
2021/10/31 01:55:56;;;;;;;1.40;1.30;;;;;;;;;;5060242;28;20579;-78
2021/10/31 01:58:24;;;;;;;1.67;1.58;;;;;;;;;;5067319;28;20033;-77
2021/10/31 02:00:52;;;;;;;5.88;2.30;;;;;;;;;;5064686;28;20113;-77
2021/10/31 02:03:19;;;;;;;1.58;1.48;;;;;;;;;;5064615;28;20618;-77
2021/10/31 02:05:46;;;;;;;1.15;1.00;;;;;;;;;;5059356;28;20051;-78
2021/10/31 02:08:13;;;;;;;2.47;2.28;;;;;;;;;;5062435;28;20033;-77
2021/10/31 02:10:40;;;;;;;15.20;2.05;;;;;;;;;;5066231;28;20025;-78
2021/10/31 02:13:06;;;;;;;2.72;1.55;;;;;;;;;;5055901;28;20031;-77
2021/10/31 02:15:33;;;;;;;1.13;1.08;;;;;;;;;;5061385;28;20105;-77
2021/10/31 02:18:00;;;;;;;1.02;1.00;;;;;;;;;;5064804;28;20028;-77
2021/10/31 02:20:27;;;;;;;1.50;1.40;;;;;;;;;;5059318;28;20479;-77
2021/10/31 02:22:56;;;;;;;1.50;1.15;;;;;;;;;;5050202;28;20120;-77
2021/10/31 02:25:23;;;;;;;0.60;0.60;;;;;;;;;;5063779;28;20038;-77
2021/10/31 02:27:49;;;;;;;0.98;0.98;;;;;;;;;;5062688;28;20147;-77
2021/10/31 02:30:15;;;;;;;6.82;2.13;;;;;;;;;;5067754;28;20020;-77
2021/10/31 02:32:41;;;;;;;1.95;0.82;;;;;;;;;;5056706;28;20176;-77
2021/10/31 02:35:09;;;;;;;2.20;1.98;;;;;;;;;;5061095;28;20031;-77
2021/10/31 02:37:37;;;;;;;1.90;1.48;;;;;;;;;;5068777;28;20037;-77
2021/10/31 02:40:03;;;;;;;0.98;0.93;;;;;;;;;;5062213;28;20098;-77
2021/10/31 02:42:29;;;;;;;0.90;0.90;;;;;;;;;;5065796;28;20394;-77
2021/10/31 02:44:55;;;;;;;1.75;1.65;;;;;;;;;;5066524;28;20021;-77
2021/10/31 02:47:30;;;;;;;0.85;0.85;;;;;;;;;;5065888;28;20498;-77
2021/10/31 02:49:57;;;;;;;24.00;3.33;;;;;;;;;;5044473;28;20046;-77
2021/10/31 02:52:42;;;;;;;2.22;1.92;;;;;;;;;;5064697;28;20021;-78
2021/10/31 02:55:17;;;;;;;1.35;1.17;;;;;;;;;;5059519;28;20020;-77
2021/10/31 02:57:49;;;;;;;1.52;1.30;;;;;;;;;;5067228;28;20078;-77
2021/10/31 03:00:16;;;;;;;1.70;1.45;;;;;;;;;;5063824;28;20082;-77
2021/10/31 03:02:42;;;;;;;0.95;0.93;;;;;;;;;;5058818;28;20028;-77
2021/10/31 03:05:08;;;;;;;1.33;1.25;;;;;;;;;;5067228;28;20028;-77
2021/10/31 03:07:34;;;;;;;1.67;0.88;;;;;;;;;;5067987;28;20058;-77
2021/10/31 03:10:00;;;;;;;1.75;1.48;;;;;;;;;;5052352;28;20021;-77
2021/10/31 03:12:26;;;;;;;4.72;1.88;;;;;;;;;;5061502;28;20495;-77
2021/10/31 03:14:52;;;;;;;2.67;2.45;;;;;;;;;;5069338;28;20107;-77
2021/10/31 03:17:18;;;;;;;0.75;0.73;;;;;;;;;;5067752;28;20479;-77
2021/10/31 03:19:45;;;;;;;1.00;0.90;;;;;;;;;;5065757;28;20276;-76
2021/10/31 03:22:10;;;;;;;1.02;0.98;;;;;;;;;;5066449;28;20043;-76
2021/10/31 03:24:37;;;;;;;1.88;1.77;;;;;;;;;;5053849;28;20488;-77
2021/10/31 03:27:03;;;;;;;2.60;2.10;;;;;;;;;;5062878;28;20194;-76
2021/10/31 03:29:29;;;;;;;5.47;2.22;;;;;;;;;;5059564;28;20078;-76
2021/10/31 03:31:55;;;;;;;0.70;0.68;;;;;;;;;;5060797;28;20028;-77
2021/10/31 03:34:21;;;;;;;3.10;1.52;;;;;;;;;;5060423;28;20044;-77
2021/10/31 03:36:48;;;;;;;2.13;1.23;;;;;;;;;;5055312;28;20025;-77
2021/10/31 03:39:14;;;;;;;0.47;0.47;;;;;;;;;;5060503;28;20020;-77
2021/10/31 03:41:41;;;;;;;0.90;0.90;;;;;;;;;;5065592;28;20028;-76
2021/10/31 03:44:07;;;;;;;1.52;1.42;;;;;;;;;;5059989;28;20543;-77
2021/10/31 03:46:33;;;;;;;1.05;0.70;;;;;;;;;;5065345;28;20028;-77
2021/10/31 03:48:59;;;;;;;1.02;1.02;;;;;;;;;;5063709;28;20025;-77
2021/10/31 03:51:25;;;;;;;1.75;1.48;;;;;;;;;;5061967;28;20031;-77
2021/10/31 03:53:51;;;;;;;1.42;1.33;;;;;;;;;;5055051;28;20021;-76
2021/10/31 03:56:17;;;;;;;2.35;1.85;;;;;;;;;;5061637;28;20032;-77
2021/10/31 03:58:43;;;;;;;0.82;0.82;;;;;;;;;;5056873;28;20424;-76
2021/10/31 04:01:09;;;;;;;0.57;0.57;;;;;;;;;;5064946;28;20029;-76
2021/10/31 04:03:35;;;;;;;0.38;0.38;;;;;;;;;;5059392;28;20025;-76
2021/10/31 04:06:01;;;;;;;2.20;1.20;;;;;;;;;;5066952;28;20052;-77
2021/10/31 04:08:27;;;;;;;0.75;0.75;;;;;;;;;;5065910;28;20497;-76
2021/10/31 04:10:53;;;;;;;2.22;1.55;;;;;;;;;;5057182;28;20099;-76
2021/10/31 04:13:19;;;;;;;1.25;1.15;;;;;;;;;;5058153;28;20043;-76
2021/10/31 04:15:45;;;;;;;1.45;1.08;;;;;;;;;;5058594;28;20621;-77
2021/10/31 04:18:11;;;;;;;1.25;1.10;;;;;;;;;;5049840;28;20150;-76
2021/10/31 04:20:36;;;;;;;1.48;1.35;;;;;;;;;;5061429;28;20025;-76
2021/10/31 04:23:02;;;;;;;1.65;1.02;;;;;;;;;;5064853;28;20032;-76
2021/10/31 04:25:28;;;;;;;1.60;0.98;;;;;;;;;;5064663;28;20029;-76
2021/10/31 04:27:54;;;;;;;1.23;0.93;;;;;;;;;;5063113;28;20047;-77
2021/10/31 04:30:20;;;;;;;0.57;0.57;;;;;;;;;;5066970;28;20047;-77
2021/10/31 04:32:46;;;;;;;0.85;0.85;;;;;;;;;;5063067;28;20032;-77
2021/10/31 04:35:12;;;;;;;1.08;0.98;;;;;;;;;;5068714;28;20029;-77
2021/10/31 04:37:41;;;;;;;0.95;0.75;;;;;;;;;;5068218;28;20679;-77
2021/10/31 04:40:10;;;;;;;1.20;1.10;;;;;;;;;;5059847;28;20483;-77
2021/10/31 04:42:36;;;;;;;1.55;1.42;;;;;;;;;;5046173;28;20047;-76
2021/10/31 04:45:02;;;;;;;4.28;0.73;;;;;;;;;;5062780;28;20039;-78
2021/10/31 04:47:28;;;;;;;2.83;1.45;;;;;;;;;;5059815;28;20029;-77
2021/10/31 04:49:54;;;;;;;0.95;0.88;;;;;;;;;;5062733;28;20037;-78
2021/10/31 04:52:20;;;;;;;0.65;0.65;;;;;;;;;;5059648;28;20017;-77
2021/10/31 04:54:46;;;;;;;0.40;0.40;;;;;;;;;;5064738;28;20031;-77
2021/10/31 04:57:11;;;;;;;1.50;1.13;;;;;;;;;;5054523;28;20041;-78
2021/10/31 04:59:37;;;;;;;1.73;1.15;;;;;;;;;;5055354;28;20086;-77
2021/10/31 05:02:03;;;;;;;1.15;1.05;;;;;;;;;;5056655;28;20033;-77
2021/10/31 05:04:29;;;;;;;0.50;0.50;;;;;;;;;;5061864;28;20171;-77
2021/10/31 05:06:55;;;;;;;5.70;1.83;;;;;;;;;;5063133;28;20028;-77
2021/10/31 05:09:21;;;;;;;3.70;1.45;;;;;;;;;;5058935;28;20114;-77
2021/10/31 05:11:47;;;;;;;1.20;1.10;;;;;;;;;;5052498;28;20067;-77
2021/10/31 05:14:13;;;;;;;0.25;0.25;;;;;;;;;;5059608;28;20103;-78
2021/10/31 05:16:39;;;;;;;1.65;1.23;;;;;;;;;;5059922;28;20032;-77
2021/10/31 05:19:05;;;;;;;6.05;2.13;;;;;;;;;;5064945;28;20047;-78
2021/10/31 05:21:32;;;;;;;0.55;0.55;;;;;;;;;;5060118;28;20511;-78
2021/10/31 05:23:58;;;;;;;2.83;2.15;;;;;;;;;;5060386;28;20025;-78
2021/10/31 05:26:25;;;;;;;1.20;0.95;;;;;;;;;;5061377;28;20109;-77
2021/10/31 05:28:51;;;;;;;0.47;0.47;;;;;;;;;;5059795;28;20020;-77
2021/10/31 05:31:17;;;;;;;1.20;0.90;;;;;;;;;;5063001;28;20031;-77
2021/10/31 05:33:44;;;;;;;0.63;0.63;;;;;;;;;;5060443;28;20138;-77
2021/10/31 05:36:10;;;;;;;1.52;1.42;;;;;;;;;;5062573;28;20139;-77
2021/10/31 05:38:36;;;;;;;1.48;0.93;;;;;;;;;;5066381;28;20024;-78
2021/10/31 05:41:03;;;;;;;1.48;0.90;;;;;;;;;;5057591;28;20056;-77
2021/10/31 05:43:29;;;;;;;0.93;0.93;;;;;;;;;;5046585;28;20025;-77
2021/10/31 05:45:56;;;;;;;1.00;0.40;;;;;;;;;;5058173;28;20025;-77
2021/10/31 05:48:22;;;;;;;1.20;1.15;;;;;;;;;;5065232;28;20422;-77
2021/10/31 05:50:48;;;;;;;1.35;1.25;;;;;;;;;;5065865;28;20537;-77
2021/10/31 05:53:14;;;;;;;1.20;1.10;;;;;;;;;;5055336;28;20025;-78
2021/10/31 05:55:40;;;;;;;3.05;1.55;;;;;;;;;;5061500;28;20403;-76
2021/10/31 05:58:06;;;;;;;4.43;1.50;;;;;;;;;;5067094;28;20418;-77
2021/10/31 06:00:32;;;;;;;1.60;1.20;;;;;;;;;;5068349;28;20028;-77
2021/10/31 06:02:59;;;;;;;1.45;1.23;;;;;;;;;;5066434;28;20024;-77
2021/10/31 06:05:25;;;;;;;3.25;2.97;;;;;;;;;;5068455;28;20024;-77
2021/10/31 06:07:51;;;;;;;1.90;1.80;;;;;;;;;;5068435;28;20031;-77
2021/10/31 06:10:17;;;;;;;0.98;0.88;;;;;;;;;;5064496;28;20028;-77
2021/10/31 06:12:44;;;;;;;0.95;0.95;;;;;;;;;;5061542;28;20479;-77
2021/10/31 06:15:10;;;;;;;0.77;0.77;;;;;;;;;;5063817;28;20119;-78
2021/10/31 06:17:38;;;;;;;1.65;1.40;;;;;;;;;;5067216;28;20501;-77
2021/10/31 06:20:04;;;;;;;0.40;0.40;;;;;;;;;;5059863;28;20044;-77
2021/10/31 06:22:30;;;;;;;1.27;1.15;;;;;;;;;;5068576;28;20074;-77
2021/10/31 06:24:56;;;;;;;0.98;0.95;;;;;;;;;;5059657;28;20102;-78
2021/10/31 06:27:22;;;;;;;1.40;1.02;;;;;;;;;;5062120;28;20048;-77
2021/10/31 06:29:48;;;;;;;0.75;0.75;;;;;;;;;;5072804;28;20020;-77
2021/10/31 06:32:14;;;;;;;0.95;0.70;;;;;;;;;;5070988;28;20031;-78
2021/10/31 06:34:39;;;;;;;1.23;1.23;;;;;;;;;;5063580;28;20058;-78
2021/10/31 06:37:05;;;;;;;0.75;0.40;;;;;;;;;;5060715;28;20075;-77
2021/10/31 06:39:31;;;;;;;0.93;0.85;;;;;;;;;;5073999;28;20028;-77
2021/10/31 06:41:57;;;;;;;1.55;1.25;;;;;;;;;;5069218;28;20043;-77
2021/10/31 06:44:24;;;;;;;0.93;0.93;;;;;;;;;;5060315;28;20025;-78
2021/10/31 06:46:49;;;;;;;0.50;0.50;;;;;;;;;;5059999;28;20408;-78
2021/10/31 06:49:15;;;;;;;0.70;0.50;;;;;;;;;;5049923;28;20507;-78
2021/10/31 06:51:41;;;;;;;2.10;1.58;;;;;;;;;;5062644;28;20090;-77
2021/10/31 06:54:09;;;;;;;2.33;1.58;;;;;;;;;;5068584;28;20028;-77
2021/10/31 06:56:35;;;;;;;1.02;0.82;;;;;;;;;;5064002;28;20104;-76
2021/10/31 06:59:02;;;;;;;0.82;0.82;;;;;;;;;;5065598;28;20171;-76
2021/10/31 07:01:28;;;;;;;0.93;0.93;;;;;;;;;;5066455;28;20020;-77
2021/10/31 07:03:54;;;;;;;1.63;1.17;;;;;;;;;;5067013;28;20048;-77
2021/10/31 07:06:20;;;;;;;1.58;1.48;;;;;;;;;;5064013;28;20021;-77
2021/10/31 07:08:46;;;;;;;1.23;1.13;;;;;;;;;;5068978;28;20040;-77
2021/10/31 07:11:12;;;;;;;1.02;1.02;;;;;;;;;;5067598;28;20028;-77
2021/10/31 07:13:38;;;;;;;1.45;1.35;;;;;;;;;;5070271;28;20033;-77
2021/10/31 07:16:04;;;;;;;1.08;0.77;;;;;;;;;;5070782;28;20036;-77
2021/10/31 07:18:30;;;;;;;1.13;1.05;;;;;;;;;;5070047;28;20130;-77
2021/10/31 07:20:56;;;;;;;1.55;1.38;;;;;;;;;;5040692;28;20024;-77
2021/10/31 07:23:22;;;;;;;0.55;0.55;;;;;;;;;;5065910;28;20399;-77
2021/10/31 07:25:48;;;;;;;1.58;0.90;;;;;;;;;;5069486;28;20722;-77
2021/10/31 07:28:14;;;;;;;3.40;1.85;;;;;;;;;;5069354;28;20029;-77
2021/10/31 07:30:40;;;;;;;1.75;1.65;;;;;;;;;;5065956;28;20132;-78
2021/10/31 07:33:06;;;;;;;1.02;0.82;;;;;;;;;;5068321;28;20031;-77
2021/10/31 07:35:32;;;;;;;2.63;1.20;;;;;;;;;;5069661;28;20017;-77
2021/10/31 07:37:58;;;;;;;5.28;1.48;;;;;;;;;;5066677;28;20353;-77
2021/10/31 07:40:25;;;;;;;4.68;1.85;;;;;;;;;;5062350;28;20067;-77
2021/10/31 07:42:51;;;;;;;1.02;0.63;;;;;;;;;;5059262;28;20223;-77
2021/10/31 07:45:17;;;;;;;2.55;1.65;;;;;;;;;;5066895;28;20032;-78
2021/10/31 07:47:43;;;;;;;1.58;1.45;;;;;;;;;;5063482;28;20036;-78
2021/10/31 07:50:09;;;;;;;2.10;1.67;;;;;;;;;;5058188;28;20021;-77
2021/10/31 07:52:41;;;;;;;0.82;0.77;;;;;;;;;;5063757;28;20021;-77
2021/10/31 07:55:09;;;;;;;0.98;0.98;;;;;;;;;;5060564;28;20132;-77
2021/10/31 07:57:35;;;;;;;2.35;1.73;;;;;;;;;;5058190;28;20017;-77
2021/10/31 08:00:01;;;;;;;1.45;1.35;;;;;;;;;;5066166;28;20024;-78
2021/10/31 08:02:27;;;;;;;1.55;1.13;;;;;;;;;;5036993;28;20398;-78
2021/10/31 08:04:53;;;;;;;0.95;0.77;;;;;;;;;;5052106;28;20033;-76
2021/10/31 08:07:23;;;;;;;1.20;1.20;;;;;;;;;;5061483;28;20643;-76
2021/10/31 08:09:49;;;;;;;0.65;0.52;;;;;;;;;;5054635;28;20040;-78
2021/10/31 08:12:15;;;;;;;0.88;0.82;;;;;;;;;;5066399;28;20024;-86
2021/10/31 08:14:41;;;;;;;1.30;0.88;;;;;;;;;;5055686;28;20020;-76
2021/10/31 08:17:07;;;;;;;0.55;0.52;;;;;;;;;;5060098;28;20056;-76
2021/10/31 08:19:33;;;;;;;0.85;0.77;;;;;;;;;;5057976;28;20025;-77
2021/10/31 08:21:59;;;;;;;2.60;0.70;;;;;;;;;;5064643;28;20028;-78
2021/10/31 08:24:26;;;;;;;1.10;1.10;;;;;;;;;;5066830;28;20426;-77
2021/10/31 08:26:51;;;;;;;3.53;0.95;;;;;;;;;;5062409;28;20040;-76
2021/10/31 08:29:20;;;;;;;1.92;1.23;;;;;;;;;;5057898;28;20074;-77
2021/10/31 08:31:50;;;;;;;4.05;1.33;;;;;;;;;;5063246;28;20386;-73
2021/10/31 08:34:16;;;;;;;1.75;1.65;;;;;;;;;;5067305;28;20364;-74
2021/10/31 08:36:42;;;;;;;5.70;1.17;;;;;;;;;;5062054;28;20029;-72
2021/10/31 08:39:08;;;;;;;0.52;0.52;;;;;;;;;;5061888;28;20395;-72
2021/10/31 08:41:34;;;;;;;5.38;1.50;;;;;;;;;;5060257;28;20060;-72
2021/10/31 08:44:00;;;;;;;1.33;0.82;;;;;;;;;;5068055;28;20098;-71
2021/10/31 08:46:27;;;;;;;3.25;1.52;;;;;;;;;;5064649;28;20032;-72
2021/10/31 08:48:53;;;;;;;2.50;0.93;;;;;;;;;;5067311;28;20036;-73
2021/10/31 08:51:24;;;;;;;1.88;1.20;;;;;;;;;;5064207;28;20020;-71
2021/10/31 08:53:50;;;;;;;;;;;;;;;;;;5067755;28;20028;-71
2021/10/31 08:56:16;;;;;;;1.88;1.45;;;;;;;;;;5064954;28;19908;-72
2021/10/31 08:58:42;;;;;;;1.63;1.00;;;;;;;;;;5065737;28;20558;-72
2021/10/31 09:01:09;;;;;;;0.60;0.57;;;;;;;;;;5067158;28;20066;-72
2021/10/31 09:03:34;;;;;;;1.20;1.10;;;;;;;;;;5068446;28;20037;-71
2021/10/31 09:06:00;;;;;;;2.83;0.40;;;;;;;;;;5052718;28;20031;-71
2021/10/31 09:08:26;;;;;;;1.42;1.08;;;;;;;;;;5053775;28;20383;-71
2021/10/31 09:10:53;;;;;;;5.78;1.55;;;;;;;;;;5055891;28;20055;-70
2021/10/31 09:13:19;;;;;;;1.25;0.98;;;;;;;;;;5041891;28;20032;-71
2021/10/31 09:15:45;;;;;;;0.13;0.13;;;;;;;;;;5065582;28;20029;-72
2021/10/31 09:18:11;;;;;;;0.77;0.77;;;;;;;;;;5067250;28;20565;-72
2021/10/31 09:20:37;;;;;;;1.90;1.70;;;;;;;;;;5064911;28;20024;-71
2021/10/31 09:23:05;;;;;;;0.43;0.43;;;;;;;;;;5065839;28;20090;-71
2021/10/31 09:25:31;;;;;;;1.13;1.13;;;;;;;;;;5061236;28;20047;-71
2021/10/31 09:27:58;;;;;;;1.52;1.17;;;;;;;;;;5050774;28;20049;-72
2021/10/31 09:30:26;;;;;;;0.40;0.40;;;;;;;;;;5066261;28;20036;-72
2021/10/31 09:32:53;;;;;;;6.72;1.38;;;;;;;;;;5061571;28;20043;-72
2021/10/31 09:35:20;;;;;;;1.13;0.98;;;;;;;;;;5067289;28;20040;-73
2021/10/31 09:37:48;;;;;;;1.25;1.15;;;;;;;;;;5067044;28;20028;-73
2021/10/31 09:40:15;;;;;;;2.72;2.22;;;;;;;;;;5058490;28;20037;-73
2021/10/31 09:42:41;;;;;;;0.60;0.60;;;;;;;;;;5071318;28;20024;-73
2021/10/31 09:45:07;;;;;;;3.95;2.20;;;;;;;;;;5053060;28;20040;-71
2021/10/31 09:47:34;;;;;;;0.50;0.50;;;;;;;;;;5066023;28;20074;-72
2021/10/31 09:50:00;;;;;;;0.95;0.88;;;;;;;;;;5068384;28;20558;-71
2021/10/31 09:52:27;;;;;;;3.35;1.60;;;;;;;;;;5071287;28;20288;-72
2021/10/31 09:54:56;;;;;;;0.57;0.57;;;;;;;;;;5067988;28;20510;-74
2021/10/31 09:57:22;;;;;;;5.22;2.28;;;;;;;;;;5057579;28;20036;-74
2021/10/31 09:59:52;;;;;;;2.38;1.77;;;;;;;;;;5065857;28;20169;-73
2021/10/31 10:02:36;;;;;;;2.17;2.00;;;;;;;;;;5069223;28;20028;-74
2021/10/31 10:05:02;;;;;;;1.45;1.35;;;;;;;;;;5061290;28;20028;-75
2021/10/31 10:07:28;;;;;;;1.25;1.05;;;;;;;;;;5057344;28;20573;-75
2021/10/31 10:09:55;;;;;;;1.70;1.60;;;;;;;;;;5067519;28;20529;-73
2021/10/31 10:12:22;;;;;;;2.28;2.08;;;;;;;;;;5067079;28;20077;-73
2021/10/31 10:14:48;;;;;;;1.50;1.40;;;;;;;;;;5066376;28;20020;-73
2021/10/31 10:17:14;;;;;;;4.00;1.02;;;;;;;;;;5071104;28;20028;-72
2021/10/31 10:19:52;;;;;;;0.73;0.73;;;;;;;;;;5039769;28;20032;-72
2021/10/31 10:22:19;;;;;;;1.33;1.23;;;;;;;;;;5069259;28;20383;-73
2021/10/31 10:24:52;;;;;;;2.25;1.20;;;;;;;;;;5071585;28;20041;-72
2021/10/31 10:27:19;;;;;;;1.77;1.48;;;;;;;;;;5070425;28;20064;-72
2021/10/31 10:29:45;;;;;;;1.33;1.23;;;;;;;;;;5070783;28;20044;-72
2021/10/31 10:32:13;;;;;;;1.45;1.35;;;;;;;;;;5064489;28;20039;-72
2021/10/31 10:37:18;;;;;;;2.63;1.35;;;;;;;;;;5067871;28;20031;-72
2021/10/31 10:39:52;;;;;;;1.38;0.85;;;;;;;;;;5065490;28;20063;-73
2021/10/31 10:42:19;;;;;;;3.67;2.13;;;;;;;;;;5062374;28;20380;-73
2021/10/31 10:44:45;;;;;;;0.77;0.73;;;;;;;;;;5066058;28;20036;-74
2021/10/31 10:47:18;;;;;;;1.38;1.20;;;;;;;;;;5070833;28;20739;-73
2021/10/31 10:49:45;;;;;;;0.35;0.32;;;;;;;;;;5058452;28;20041;-72
2021/10/31 10:52:19;;;;;;;4.03;1.08;;;;;;;;;;5054727;28;20029;-73
2021/10/31 10:54:47;;;;;;;0.80;0.77;;;;;;;;;;5059264;28;20052;-73
2021/10/31 10:57:14;;;;;;;1.17;0.98;;;;;;;;;;5062205;28;20497;-73
2021/10/31 10:59:40;;;;;;;1.88;1.40;;;;;;;;;;5065183;28;20039;-73
2021/10/31 11:02:07;;;;;;;1.10;0.95;;;;;;;;;;5064205;28;20051;-73
2021/10/31 11:04:34;;;;;;;1.77;1.10;;;;;;;;;;5066132;28;20115;-74
2021/10/31 11:07:00;;;;;;;3.28;1.92;;;;;;;;;;5059015;28;20039;-74
2021/10/31 11:09:26;;;;;;;3.38;1.67;;;;;;;;;;5059643;28;20676;-73
2021/10/31 11:11:52;;;;;;;1.85;1.02;;;;;;;;;;5063556;28;20721;-73
2021/10/31 11:14:18;;;;;;;1.70;1.48;;;;;;;;;;5065053;28;20021;-73
2021/10/31 11:16:45;;;;;;;2.25;1.23;;;;;;;;;;5063803;28;20067;-73
2021/10/31 11:19:11;;;;;;;2.95;1.55;;;;;;;;;;5063492;28;20542;-73
2021/10/31 11:21:36;;;;;;;1.13;1.10;;;;;;;;;;5065904;28;20613;-73
2021/10/31 11:24:03;;;;;;;0.75;0.75;;;;;;;;;;5064668;28;20025;-73
2021/10/31 11:26:30;;;;;;;5.43;2.22;;;;;;;;;;5063210;28;20049;-73
2021/10/31 11:28:55;;;;;;;0.55;0.55;;;;;;;;;;5062912;28;20071;-73
2021/10/31 11:31:22;;;;;;;1.10;1.05;;;;;;;;;;5063585;28;20032;-73
2021/10/31 11:33:49;;;;;;;5.03;1.83;;;;;;;;;;5064044;28;20040;-73
2021/10/31 11:36:16;;;;;;;1.23;1.13;;;;;;;;;;5065428;28;20395;-73
2021/10/31 11:38:43;;;;;;;1.70;1.25;;;;;;;;;;5063010;28;20043;-73
2021/10/31 11:41:13;;;;;;;0.98;0.82;;;;;;;;;;5065021;28;20112;-74
2021/10/31 11:43:46;;;;;;;2.45;1.55;;;;;;;;;;5063390;28;20119;-73
2021/10/31 11:46:12;;;;;;;0.68;0.68;;;;;;;;;;5063272;28;20044;-73
2021/10/31 11:48:38;;;;;;;1.55;0.90;;;;;;;;;;5063723;28;20028;-73
2021/10/31 11:51:04;;;;;;;2.45;1.52;;;;;;;;;;5064198;28;20035;-73
2021/10/31 11:53:39;;;;;;;0.60;0.57;;;;;;;;;;5064010;28;20025;-74
2021/10/31 11:56:15;;;;;;;1.15;0.88;;;;;;;;;;5065258;28;20078;-73
2021/10/31 11:58:43;;;;;;;1.67;1.58;;;;;;;;;;5062533;28;20040;-73
2021/10/31 12:01:15;;;;;;;4.38;2.00;;;;;;;;;;5061842;28;20037;-71
2021/10/31 12:03:44;;;;;;;1.73;1.10;;;;;;;;;;5064513;28;20174;-72
2021/10/31 12:06:15;;;;;;;0.88;0.68;;;;;;;;;;5062284;28;20059;-72
2021/10/31 12:08:44;;;;;;;1.08;0.85;;;;;;;;;;5064034;28;20383;-71
2021/10/31 12:11:10;;;;;;;0.88;0.85;;;;;;;;;;5063350;28;20025;-72
2021/10/31 12:13:46;;;;;;;0.80;0.80;;;;;;;;;;5063889;28;20457;-72
2021/10/31 12:16:13;;;;;;;2.40;0.90;;;;;;;;;;5063894;28;20028;-73
2021/10/31 12:18:42;;;;;;;2.42;1.65;;;;;;;;;;5063293;28;20430;-71
2021/10/31 12:21:18;;;;;;;1.85;1.60;;;;;;;;;;5057604;28;20491;-69
2021/10/31 12:24:04;;;;;;;0.80;0.80;;;;;;;;;;5040217;28;20030;-72
2021/10/31 12:26:41;;;;;;;0.95;0.88;;;;;;;;;;5056117;28;20852;-71
2021/10/31 12:29:10;;;;;;;2.28;1.50;;;;;;;;;;5041246;28;20044;-70
2021/10/31 12:31:35;;;;;;;2.00;0.85;;;;;;;;;;5039944;28;20021;-70
2021/10/31 12:34:19;;;;;;;1.40;1.05;;;;;;;;;;5039609;28;20047;-71
2021/10/31 12:36:56;;;;;;;2.33;0.80;;;;;;;;;;5040520;28;20079;-71
2021/10/31 12:39:24;;;;;;;1.40;1.20;;;;;;;;;;5038922;28;20027;-70
2021/10/31 12:42:10;;;;;;;0.30;0.30;;;;;;;;;;5036927;28;20022;-70
2021/10/31 12:44:36;;;;;;;1.13;0.60;;;;;;;;;;5041039;28;20113;-72
2021/10/31 12:47:03;;;;;;;1.15;1.00;;;;;;;;;;5041747;28;20464;-70
2021/10/31 12:49:29;;;;;;;3.42;2.28;;;;;;;;;;5039895;28;20037;-70
2021/10/31 12:52:03;;;;;;;2.95;1.65;;;;;;;;;;5040782;28;20248;-69
2021/10/31 12:54:33;;;;;;;0.82;0.77;;;;;;;;;;5039915;28;20037;-70
2021/10/31 12:57:00;;;;;;;0.98;0.77;;;;;;;;;;5043573;28;20099;-70
2021/10/31 12:59:26;;;;;;;1.15;1.15;;;;;;;;;;5022572;28;20025;-70
2021/10/31 13:02:05;;;;;;;5.05;2.10;;;;;;;;;;5022573;28;20030;-70
2021/10/31 13:04:45;;;;;;;5.35;0.98;;;;;;;;;;5018308;28;20112;-71
2021/10/31 13:07:11;;;;;;;1.05;0.95;;;;;;;;;;5020590;28;20131;-70
2021/10/31 13:09:38;;;;;;;0.90;0.88;;;;;;;;;;5021784;28;20489;-71
2021/10/31 13:12:04;;;;;;;2.47;0.75;;;;;;;;;;5022293;28;20128;-71
2021/10/31 13:14:34;;;;;;;1.25;0.93;;;;;;;;;;5019614;28;20089;-70
2021/10/31 13:17:01;;;;;;;1.98;1.13;;;;;;;;;;5021544;28;20034;-80
2021/10/31 13:19:30;;;;;;;0.68;0.68;;;;;;;;;;5022369;28;20037;-73
2021/10/31 13:21:59;;;;;;;2.08;1.42;;;;;;;;;;5021016;28;20029;-73
2021/10/31 13:24:26;;;;;;;1.02;0.55;;;;;;;;;;5022229;28;20485;-73
2021/10/31 13:26:52;;;;;;;1.60;1.10;;;;;;;;;;5021700;28;20026;-72
2021/10/31 13:29:17;;;;;;;1.00;0.77;;;;;;;;;;5022267;28;20088;-73
2021/10/31 13:31:43;;;;;;;3.47;0.95;;;;;;;;;;5014065;28;20038;-72
2021/10/31 13:34:10;;;;;;;1.02;0.80;;;;;;;;;;5008675;28;20359;-72
2021/10/31 13:36:37;;;;;;;1.33;0.75;;;;;;;;;;5009568;28;20042;-72
2021/10/31 13:39:11;;;;;;;1.60;1.50;;;;;;;;;;5007266;28;20030;-72
2021/10/31 13:41:36;;;;;;;5.03;1.88;;;;;;;;;;5009739;28;20026;-72
2021/10/31 13:44:04;;;;;;;3.80;1.63;;;;;;;;;;5007988;28;20044;-72
2021/10/31 13:46:31;;;;;;;2.95;1.52;;;;;;;;;;5006633;28;20408;-73
2021/10/31 13:48:59;;;;;;;3.50;1.77;;;;;;;;;;5008505;28;20026;-73
2021/10/31 13:51:26;;;;;;;2.65;2.15;;;;;;;;;;5007697;28;20457;-71
2021/10/31 13:53:52;;;;;;;5.95;3.47;;;;;;;;;;5005848;28;20034;-72
2021/10/31 13:56:18;;;;;;;5.57;1.73;;;;;;;;;;5009111;28;20037;-73
2021/10/31 13:58:44;;;;;;;2.58;2.00;;;;;;;;;;5007311;28;20018;-72
2021/10/31 14:01:10;;;;;;;3.25;1.55;;;;;;;;;;5008861;28;20121;-72
2021/10/31 14:03:41;;;;;;;2.90;1.85;;;;;;;;;;5008519;28;20492;-72
2021/10/31 14:06:08;;;;;;;7.80;3.15;;;;;;;;;;5007154;28;20026;-73
2021/10/31 14:08:45;;;;;;;4.60;2.30;;;;;;;;;;5009033;28;20034;-72
2021/10/31 14:11:15;;;;;;;2.17;1.75;;;;;;;;;;5008093;28;20034;-72
2021/10/31 14:13:42;;;;;;;2.67;1.98;;;;;;;;;;5008984;28;20025;-72
2021/10/31 14:16:18;;;;;;;0.88;0.88;;;;;;;;;;5006019;28;20033;-71
2021/10/31 14:18:44;;;;;;;0.52;0.52;;;;;;;;;;5008031;28;20125;-73
2021/10/31 14:21:13;;;;;;;1.48;0.85;;;;;;;;;;5006125;28;20050;-71
2021/10/31 14:23:39;;;;;;;2.40;1.35;;;;;;;;;;5008607;28;20026;-70
2021/10/31 14:26:07;;;;;;;2.05;1.23;;;;;;;;;;4998453;28;20042;-71
2021/10/31 14:28:35;;;;;;;1.73;1.45;;;;;;;;;;5003040;28;20389;-71
2021/10/31 14:31:10;;;;;;;7.05;2.78;;;;;;;;;;5004203;28;20060;-72
2021/10/31 14:33:37;;;;;;;2.45;2.25;;;;;;;;;;5005681;28;21048;-71
2021/10/31 14:36:08;;;;;;;2.00;1.52;;;;;;;;;;5006122;28;20037;-72
2021/10/31 14:38:43;;;;;;;0.95;0.80;;;;;;;;;;5003610;28;20488;-71
2021/10/31 14:41:09;;;;;;;1.45;1.23;;;;;;;;;;5004556;28;20331;-71
2021/10/31 14:43:56;;;;;;;1.83;1.45;;;;;;;;;;5007037;28;20036;-72
2021/10/31 14:46:23;;;;;;;1.85;1.65;;;;;;;;;;5003023;28;20117;-81
2021/10/31 14:48:55;;;;;;;2.58;1.73;;;;;;;;;;5003766;28;20083;-72
2021/10/31 14:51:24;;;;;;;2.75;1.42;;;;;;;;;;5006356;28;20057;-73